Time;durP1;ratioP1;P1;durP2;ratioP2;P2;SDS_P1;SDS_P2;PMS_P1;PMS_P2;Temp;Humidity;BMP_temperature;BMP_pressure;BME280_temperature;BME280_humidity;BME280_pressure;Samples;Min_cycle;Max_cycle;Signal;HPM_P1;HPM_P2
2023/05/25 00:00:32;;;;;;;8.00;3.20;;;19.60;39.40;;;;;;5041064;28;20443;-51
2023/05/25 00:02:58;;;;;;;8.53;3.37;;;19.60;39.20;;;;;;5049227;28;20450;-52
2023/05/25 00:05:26;;;;;;;8.97;3.10;;;19.60;39.10;;;;;;5049638;28;20470;-48
2023/05/25 00:07:53;;;;;;;6.63;2.70;;;19.60;39.10;;;;;;5050246;28;20193;-52
2023/05/25 00:10:19;;;;;;;4.80;2.80;;;19.20;38.50;;;;;;5045055;28;20443;-51
2023/05/25 00:12:45;;;;;;;8.27;3.40;;;19.10;39.80;;;;;;5041805;28;20541;-51
2023/05/25 00:15:10;;;;;;;5.70;2.90;;;19.00;39.50;;;;;;5040967;28;20991;-49
2023/05/25 00:17:36;;;;;;;6.10;3.30;;;19.00;39.20;;;;;;5047048;28;20224;-52
2023/05/25 00:20:08;;;;;;;8.90;3.50;;;19.00;39.20;;;;;;5050492;28;20200;-51
2023/05/25 00:22:37;;;;;;;10.93;3.90;;;18.90;39.60;;;;;;5050181;28;20612;-51
2023/05/25 00:25:03;;;;;;;5.73;3.20;;;19.00;39.40;;;;;;5046904;28;20460;-50
2023/05/25 00:27:30;;;;;;;5.57;2.93;;;19.00;40.00;;;;;;5037478;28;20439;-50
2023/05/25 00:29:55;;;;;;;12.73;3.00;;;19.10;39.60;;;;;;5021077;28;20828;-51
2023/05/25 00:32:21;;;;;;;5.03;2.90;;;19.20;40.10;;;;;;5048273;28;20478;-50
2023/05/25 00:34:47;;;;;;;4.83;2.90;;;19.30;40.40;;;;;;5047687;28;20201;-51
2023/05/25 00:37:13;;;;;;;4.27;2.33;;;19.40;39.40;;;;;;5048593;28;20278;-50
2023/05/25 00:39:39;;;;;;;10.93;4.10;;;19.40;39.90;;;;;;5044220;28;20284;-50
2023/05/25 00:42:06;;;;;;;4.90;3.00;;;19.40;40.30;;;;;;5042365;28;20522;-51
2023/05/25 00:44:32;;;;;;;5.77;3.30;;;19.50;39.80;;;;;;5036949;28;20197;-50
2023/05/25 00:46:58;;;;;;;8.90;2.93;;;19.50;39.50;;;;;;5044555;28;20431;-52
2023/05/25 00:49:25;;;;;;;6.37;3.50;;;19.60;40.90;;;;;;5039130;28;20185;-51
2023/05/25 00:51:51;;;;;;;5.23;2.60;;;19.60;39.10;;;;;;5032722;28;20488;-50
2023/05/25 00:54:18;;;;;;;10.80;3.10;;;19.60;39.30;;;;;;5034283;28;20993;-50
2023/05/25 00:56:55;;;;;;;7.33;3.23;;;19.70;39.30;;;;;;5037144;28;20447;-50
2023/05/25 00:59:40;;;;;;;6.63;3.40;;;19.70;39.70;;;;;;5035963;28;20435;-51
2023/05/25 01:02:12;;;;;;;6.97;3.00;;;19.70;39.40;;;;;;5038099;28;20453;-47
2023/05/25 01:04:43;;;;;;;7.00;3.13;;;19.70;39.60;;;;;;5036411;28;20497;-48
2023/05/25 01:07:11;;;;;;;5.77;3.00;;;19.70;39.70;;;;;;5044392;28;20798;-52
2023/05/25 01:09:43;;;;;;;3.73;2.70;;;19.70;40.30;;;;;;5034181;28;20943;-50
2023/05/25 01:12:09;;;;;;;5.80;3.50;;;19.80;40.70;;;;;;5033507;28;20483;-51
2023/05/25 01:14:39;;;;;;;7.77;2.93;;;19.80;39.80;;;;;;5038556;28;20455;-52
2023/05/25 01:17:05;;;;;;;7.77;3.20;;;19.80;40.20;;;;;;5044581;28;21058;-50
2023/05/25 01:19:36;;;;;;;5.47;3.10;;;19.80;40.30;;;;;;5042217;28;20447;-49
2023/05/25 01:22:14;;;;;;;6.60;3.00;;;19.80;40.30;;;;;;5045408;28;20444;-52
2023/05/25 01:24:44;;;;;;;5.47;3.30;;;19.80;39.60;;;;;;5037744;28;20805;-48
2023/05/25 01:27:20;;;;;;;7.17;3.73;;;19.90;40.00;;;;;;5044426;28;20431;-50
2023/05/25 01:29:47;;;;;;;9.93;3.87;;;19.80;39.50;;;;;;5041425;28;20529;-48
2023/05/25 01:32:13;;;;;;;4.63;2.63;;;19.90;39.70;;;;;;5047939;28;20502;-51
2023/05/25 01:34:41;;;;;;;7.57;3.50;;;19.90;39.90;;;;;;5047433;28;20474;-49
2023/05/25 01:37:07;;;;;;;5.83;2.93;;;19.90;40.50;;;;;;5038588;28;20493;-49
2023/05/25 01:39:33;;;;;;;6.67;3.03;;;19.80;39.70;;;;;;5047170;28;20526;-47
2023/05/25 01:42:00;;;;;;;5.67;2.83;;;19.80;39.30;;;;;;5045443;28;20987;-51
2023/05/25 01:44:27;;;;;;;7.73;3.30;;;19.60;39.50;;;;;;5052018;28;20246;-47
2023/05/25 01:47:02;;;;;;;5.17;3.20;;;19.50;40.40;;;;;;5049599;28;20455;-51
2023/05/25 01:49:57;;;;;;;9.77;3.73;;;19.50;40.30;;;;;;5052246;28;20922;-50
2023/05/25 01:52:27;;;;;;;5.30;3.37;;;19.50;40.80;;;;;;5051269;28;20486;-51
2023/05/25 01:55:01;;;;;;;4.87;2.90;;;19.50;40.20;;;;;;5050839;28;20488;-50
2023/05/25 01:57:28;;;;;;;5.00;3.20;;;19.40;40.40;;;;;;5049908;28;20470;-49
2023/05/25 01:59:58;;;;;;;5.93;2.63;;;19.40;40.20;;;;;;5027089;28;20441;-51
2023/05/25 02:02:26;;;;;;;6.70;4.30;;;19.50;40.60;;;;;;5042605;28;20804;-48
2023/05/25 02:04:53;;;;;;;6.90;3.23;;;19.40;40.30;;;;;;5046653;28;20463;-51
2023/05/25 02:07:19;;;;;;;8.27;3.33;;;19.40;41.10;;;;;;5043780;28;20539;-51
2023/05/25 02:09:45;;;;;;;7.67;3.67;;;19.40;40.30;;;;;;5042276;28;20434;-49
2023/05/25 02:12:11;;;;;;;5.67;2.90;;;19.20;40.30;;;;;;5048380;28;20478;-51
2023/05/25 02:14:36;;;;;;;5.17;3.10;;;18.80;41.20;;;;;;5051651;28;20219;-48
2023/05/25 02:17:02;;;;;;;5.77;3.13;;;18.80;41.00;;;;;;5042029;28;20279;-50
2023/05/25 02:19:28;;;;;;;10.13;3.90;;;18.90;41.30;;;;;;5035359;28;20693;-49
2023/05/25 02:21:54;;;;;;;6.13;3.27;;;19.00;41.80;;;;;;5051931;28;20435;-47
2023/05/25 02:24:23;;;;;;;7.37;3.57;;;19.00;41.10;;;;;;5053812;28;20238;-51
2023/05/25 02:26:49;;;;;;;9.07;3.70;;;19.00;41.00;;;;;;5051860;28;20197;-47
2023/05/25 02:29:15;;;;;;;5.10;3.33;;;19.00;41.50;;;;;;5049419;28;20447;-51
2023/05/25 02:31:41;;;;;;;6.33;3.47;;;19.00;41.60;;;;;;5050499;28;20516;-47
2023/05/25 02:34:06;;;;;;;5.83;3.53;;;19.00;41.00;;;;;;5049969;28;21140;-51
2023/05/25 02:36:33;;;;;;;7.77;3.33;;;19.00;41.10;;;;;;5051598;28;20201;-50
2023/05/25 02:38:59;;;;;;;6.53;3.47;;;19.00;40.80;;;;;;5046060;28;20193;-49
2023/05/25 02:41:26;;;;;;;5.60;3.20;;;18.90;40.80;;;;;;5045736;28;20447;-51
2023/05/25 02:43:52;;;;;;;8.07;3.20;;;18.80;40.90;;;;;;5038623;28;20761;-47
2023/05/25 02:46:18;;;;;;;5.80;3.97;;;18.80;41.10;;;;;;5036465;28;20475;-46
2023/05/25 02:48:45;;;;;;;7.40;3.70;;;18.80;41.20;;;;;;5036432;28;20941;-52
2023/05/25 02:51:11;;;;;;;6.33;3.50;;;18.80;41.30;;;;;;5036466;28;20542;-46
2023/05/25 02:53:36;;;;;;;7.87;3.83;;;18.80;41.10;;;;;;5042878;28;20442;-46
2023/05/25 02:56:04;;;;;;;5.53;3.53;;;18.70;41.10;;;;;;5036395;28;20208;-48
2023/05/25 02:58:30;;;;;;;7.53;3.00;;;18.80;41.30;;;;;;5018083;28;20292;-51
2023/05/25 03:00:58;;;;;;;5.83;4.30;;;18.80;41.90;;;;;;5040281;28;20538;-52
2023/05/25 03:03:24;;;;;;;5.93;3.40;;;18.90;41.60;;;;;;5035956;28;20451;-51
2023/05/25 03:05:51;;;;;;;5.67;3.47;;;18.80;41.10;;;;;;5034847;28;20570;-52
2023/05/25 03:08:16;;;;;;;3.30;3.00;;;18.80;41.30;;;;;;5032682;28;20424;-52
2023/05/25 03:10:42;;;;;;;4.43;3.33;;;18.70;41.70;;;;;;5047212;28;20447;-49
2023/05/25 03:13:07;;;;;;;6.77;3.50;;;18.60;42.00;;;;;;5049886;28;20205;-51
2023/05/25 03:15:33;;;;;;;5.80;3.53;;;18.60;41.90;;;;;;5040293;28;20200;-51
2023/05/25 03:18:00;;;;;;;5.50;3.70;;;18.60;42.20;;;;;;5036879;28;20200;-51
2023/05/25 03:20:26;;;;;;;9.00;3.70;;;18.50;42.40;;;;;;5049012;28;20208;-50
2023/05/25 03:22:53;;;;;;;7.20;4.40;;;18.50;42.10;;;;;;5036710;28;20804;-51
2023/05/25 03:25:19;;;;;;;5.00;3.40;;;18.50;42.00;;;;;;5048344;28;20471;-50
2023/05/25 03:27:44;;;;;;;6.43;3.30;;;18.50;43.10;;;;;;5050977;28;20477;-51
2023/05/25 03:30:10;;;;;;;10.23;4.70;;;18.50;42.10;;;;;;5047298;28;20196;-47
2023/05/25 03:32:36;;;;;;;5.70;3.40;;;18.50;42.30;;;;;;5047016;28;20242;-50
2023/05/25 03:35:04;;;;;;;9.17;3.50;;;18.40;43.10;;;;;;5045510;28;20436;-51
2023/05/25 03:37:30;;;;;;;7.83;3.23;;;18.30;42.70;;;;;;5041817;28;20196;-51
2023/05/25 03:39:55;;;;;;;5.07;3.50;;;18.30;42.90;;;;;;5046069;28;20447;-50
2023/05/25 03:42:21;;;;;;;6.90;4.30;;;18.40;43.80;;;;;;5041390;28;20192;-50
2023/05/25 03:44:47;;;;;;;7.63;4.30;;;18.40;43.10;;;;;;5045321;28;20288;-50
2023/05/25 03:47:12;;;;;;;8.47;3.43;;;18.40;42.60;;;;;;5043124;28;20246;-51
2023/05/25 03:49:38;;;;;;;6.83;3.53;;;18.40;42.70;;;;;;5031535;28;20205;-50
2023/05/25 03:52:05;;;;;;;5.57;3.70;;;18.40;42.90;;;;;;5049764;28;20235;-51
2023/05/25 03:54:31;;;;;;;8.93;4.30;;;18.40;42.80;;;;;;5045254;28;20655;-50
2023/05/25 03:56:58;;;;;;;7.30;3.70;;;18.40;43.00;;;;;;5049554;28;20439;-51
2023/05/25 03:59:27;;;;;;;5.63;3.80;;;18.50;43.00;;;;;;5037365;28;21007;-51
2023/05/25 04:01:52;;;;;;;5.63;4.20;;;18.50;42.80;;;;;;5040510;28;20835;-47
2023/05/25 04:04:18;;;;;;;6.20;3.90;;;18.40;42.70;;;;;;5035734;28;20485;-49
2023/05/25 04:06:44;;;;;;;8.33;3.93;;;18.40;42.90;;;;;;5040820;28;20232;-50
2023/05/25 04:09:11;;;;;;;4.70;3.70;;;18.40;43.40;;;;;;5035773;28;20276;-48
2023/05/25 04:11:36;;;;;;;6.33;4.40;;;18.50;43.50;;;;;;5034843;28;20856;-48
2023/05/25 04:14:02;;;;;;;5.97;3.93;;;18.50;43.50;;;;;;5035879;28;20474;-51
2023/05/25 04:16:28;;;;;;;8.93;4.30;;;18.50;43.40;;;;;;5043490;28;20196;-49
2023/05/25 04:18:54;;;;;;;12.43;4.60;;;18.50;43.10;;;;;;5042130;28;20365;-47
2023/05/25 04:21:20;;;;;;;10.10;4.30;;;18.50;43.50;;;;;;5047856;28;20443;-49
2023/05/25 04:23:46;;;;;;;5.73;3.87;;;18.50;43.70;;;;;;5049760;28;20450;-48
2023/05/25 04:26:12;;;;;;;8.10;4.60;;;18.50;43.90;;;;;;5043301;28;20192;-49
2023/05/25 04:28:39;;;;;;;6.10;4.33;;;18.50;43.80;;;;;;5049219;28;20266;-52
2023/05/25 04:31:05;;;;;;;7.63;4.47;;;18.60;43.80;;;;;;5047024;28;20231;-47
2023/05/25 04:33:33;;;;;;;9.33;4.60;;;18.60;44.10;;;;;;5038440;28;20858;-51
2023/05/25 04:35:59;;;;;;;8.00;4.87;;;18.70;44.60;;;;;;5039953;28;20847;-52
2023/05/25 04:38:25;;;;;;;6.93;4.13;;;18.70;44.00;;;;;;5047298;28;20446;-46
2023/05/25 04:40:52;;;;;;;8.27;4.90;;;18.80;44.10;;;;;;5041004;28;20443;-47
2023/05/25 04:43:19;;;;;;;7.30;4.20;;;18.80;43.80;;;;;;5045186;28;20196;-49
2023/05/25 04:45:45;;;;;;;12.03;5.10;;;18.80;43.40;;;;;;5043143;28;20584;-50
2023/05/25 04:48:12;;;;;;;11.33;4.70;;;18.80;43.60;;;;;;5051185;28;20506;-47
2023/05/25 04:50:39;;;;;;;10.13;4.97;;;18.70;43.40;;;;;;5050000;28;20446;-50
2023/05/25 04:53:05;;;;;;;8.70;4.30;;;18.70;43.20;;;;;;5033390;28;20444;-52
2023/05/25 04:55:31;;;;;;;9.50;5.10;;;18.70;43.70;;;;;;5037543;28;21216;-49
2023/05/25 04:57:57;;;;;;;6.90;4.90;;;18.80;44.50;;;;;;5040368;28;20442;-46
2023/05/25 05:00:23;;;;;;;8.50;4.70;;;18.80;44.00;;;;;;5041943;28;20195;-51
2023/05/25 05:02:50;;;;;;;8.83;4.73;;;18.80;43.90;;;;;;5043977;28;20512;-46
2023/05/25 05:05:16;;;;;;;8.40;4.90;;;18.80;43.70;;;;;;5035908;28;20576;-46
2023/05/25 05:07:41;;;;;;;7.77;4.33;;;18.70;43.70;;;;;;5048613;28;20531;-50
2023/05/25 05:10:08;;;;;;;9.73;5.50;;;18.80;44.00;;;;;;5037161;28;20950;-47
2023/05/25 05:12:33;;;;;;;8.57;4.27;;;18.80;44.20;;;;;;5047381;28;20235;-46
2023/05/25 05:14:59;;;;;;;7.17;4.93;;;18.80;44.60;;;;;;5044973;28;20438;-48
2023/05/25 05:17:26;;;;;;;8.83;4.90;;;19.00;44.90;;;;;;5046797;28;20553;-51
2023/05/25 05:19:52;;;;;;;10.63;4.40;;;19.00;44.70;;;;;;5051976;28;20656;-47
2023/05/25 05:22:19;;;;;;;8.80;5.20;;;19.00;44.40;;;;;;5048809;28;20990;-49
2023/05/25 05:24:44;;;;;;;10.50;4.40;;;19.10;44.60;;;;;;5046412;28;20478;-49
2023/05/25 05:27:13;;;;;;;9.00;5.03;;;19.10;44.60;;;;;;5051647;28;20562;-51
2023/05/25 05:29:39;;;;;;;7.30;5.17;;;19.10;44.30;;;;;;5042591;28;20197;-52
2023/05/25 05:32:05;;;;;;;8.47;4.80;;;19.10;44.10;;;;;;5045720;28;20515;-49
2023/05/25 05:34:31;;;;;;;7.53;5.53;;;19.00;44.00;;;;;;5052143;28;20442;-49
2023/05/25 05:36:56;;;;;;;13.93;4.70;;;19.00;44.10;;;;;;5052867;28;20267;-51
2023/05/25 05:39:22;;;;;;;9.13;4.90;;;19.00;44.20;;;;;;5044928;28;20188;-47
2023/05/25 05:41:47;;;;;;;8.07;4.83;;;19.00;44.30;;;;;;5049722;28;20196;-52
2023/05/25 05:44:13;;;;;;;6.03;5.00;;;19.00;44.40;;;;;;5047221;28;20656;-50
2023/05/25 05:46:39;;;;;;;10.67;4.97;;;19.10;44.50;;;;;;5050790;28;20672;-48
2023/05/25 05:49:05;;;;;;;9.07;4.53;;;19.20;44.70;;;;;;5054555;28;20702;-51
2023/05/25 05:51:31;;;;;;;8.80;4.20;;;19.20;44.50;;;;;;5054553;28;20516;-52
2023/05/25 05:53:57;;;;;;;8.77;4.93;;;19.10;44.30;;;;;;5054569;28;20681;-46
2023/05/25 05:56:22;;;;;;;10.20;4.60;;;19.10;44.30;;;;;;5053835;28;20443;-47
2023/05/25 05:58:50;;;;;;;7.90;4.40;;;19.10;44.30;;;;;;5055999;28;20195;-47
2023/05/25 06:01:16;;;;;;;9.43;4.50;;;19.10;44.70;;;;;;5054099;28;20219;-48
2023/05/25 06:03:42;;;;;;;10.40;4.40;;;19.20;44.80;;;;;;5054514;28;20970;-46
2023/05/25 06:06:08;;;;;;;8.60;4.60;;;19.20;44.60;;;;;;5048154;28;20236;-47
2023/05/25 06:08:34;;;;;;;12.00;5.50;;;19.20;44.30;;;;;;5049426;28;20487;-48
2023/05/25 06:10:59;;;;;;;8.97;5.03;;;19.30;45.50;;;;;;5046519;28;20940;-46
2023/05/25 06:13:25;;;;;;;7.47;4.60;;;19.20;44.90;;;;;;5048719;28;20200;-47
2023/05/25 06:15:51;;;;;;;9.90;4.57;;;19.30;44.90;;;;;;5048610;28;20272;-48
2023/05/25 06:18:16;;;;;;;8.00;5.40;;;19.40;45.60;;;;;;5051160;28;20556;-47
2023/05/25 06:20:43;;;;;;;10.80;4.90;;;19.60;45.60;;;;;;5052992;28;20713;-46
2023/05/25 06:23:11;;;;;;;7.53;4.87;;;19.80;45.10;;;;;;5055316;28;20197;-46
2023/05/25 06:25:36;;;;;;;5.57;4.53;;;19.90;44.90;;;;;;5049191;28;20447;-46
2023/05/25 06:28:02;;;;;;;10.00;6.00;;;20.00;45.00;;;;;;5046182;28;20498;-49
2023/05/25 06:30:28;;;;;;;9.87;5.07;;;20.10;44.40;;;;;;5048365;28;20272;-47
2023/05/25 06:32:53;;;;;;;6.73;4.90;;;20.20;44.40;;;;;;5042398;28;20315;-47
2023/05/25 06:35:19;;;;;;;11.90;5.60;;;20.40;45.00;;;;;;5045461;28;20197;-47
2023/05/25 06:37:47;;;;;;;9.57;5.70;;;20.40;44.30;;;;;;5048178;28;20746;-47
2023/05/25 06:40:14;;;;;;;8.10;4.67;;;20.40;44.60;;;;;;5047809;28;21115;-47
2023/05/25 06:42:40;;;;;;;8.63;5.47;;;20.50;44.20;;;;;;5045452;28;20451;-47
2023/05/25 06:45:06;;;;;;;7.33;4.73;;;20.70;44.40;;;;;;5047309;28;20449;-48
2023/05/25 06:47:32;;;;;;;6.73;4.80;;;20.70;44.60;;;;;;5041728;28;20469;-51
2023/05/25 06:49:58;;;;;;;8.87;4.73;;;20.70;44.60;;;;;;5051914;28;20894;-49
2023/05/25 06:52:26;;;;;;;10.57;4.90;;;20.80;44.90;;;;;;5047293;28;20233;-47
2023/05/25 06:54:52;;;;;;;11.10;4.63;;;20.60;45.30;;;;;;5042468;28;20950;-51
2023/05/25 06:57:18;;;;;;;7.73;4.20;;;20.50;45.10;;;;;;5049165;28;20503;-48
2023/05/25 06:59:43;;;;;;;11.20;5.17;;;20.60;45.10;;;;;;5049719;28;20192;-50
2023/05/25 07:02:09;;;;;;;12.53;6.30;;;20.60;44.90;;;;;;5046215;28;20562;-51
2023/05/25 07:04:35;;;;;;;9.60;5.47;;;20.50;45.60;;;;;;5041737;28;20228;-49
2023/05/25 07:07:00;;;;;;;11.07;6.20;;;20.60;45.20;;;;;;5043312;28;20188;-49
2023/05/25 07:09:26;;;;;;;14.40;5.50;;;20.60;45.30;;;;;;5044360;28;20200;-48
2023/05/25 07:11:51;;;;;;;8.50;5.60;;;20.50;45.20;;;;;;5050984;28;20235;-51
2023/05/25 07:14:17;;;;;;;10.17;5.70;;;20.60;45.20;;;;;;5043349;28;20239;-51
2023/05/25 07:16:43;;;;;;;9.10;5.00;;;20.60;44.80;;;;;;5035124;28;20211;-48
2023/05/25 07:19:10;;;;;;;13.80;6.10;;;20.80;45.30;;;;;;5047729;28;20234;-50
2023/05/25 07:21:36;;;;;;;10.23;5.40;;;20.70;44.70;;;;;;5042604;28;20451;-52
2023/05/25 07:24:05;;;;;;;8.53;5.27;;;20.50;44.90;;;;;;5022736;28;20924;-50
2023/05/25 07:26:32;;;;;;;11.07;6.60;;;20.20;44.90;;;;;;5052937;28;20192;-48
2023/05/25 07:28:57;;;;;;;11.93;6.30;;;20.20;45.30;;;;;;5052867;28;20890;-48
2023/05/25 07:31:23;;;;;;;9.90;6.00;;;20.10;46.20;;;;;;5052939;28;20570;-48
2023/05/25 07:33:48;;;;;;;13.50;6.83;;;20.10;46.40;;;;;;5042947;28;20280;-52
2023/05/25 07:36:14;;;;;;;8.40;5.43;;;20.30;46.80;;;;;;5038965;28;20671;-48
2023/05/25 07:38:40;;;;;;;13.40;5.70;;;20.40;45.30;;;;;;5041331;28;20601;-49
2023/05/25 07:41:06;;;;;;;9.57;5.63;;;20.50;45.40;;;;;;5044573;28;20226;-51
2023/05/25 07:43:32;;;;;;;15.93;5.30;;;20.60;45.20;;;;;;5042619;28;20511;-50
2023/05/25 07:45:59;;;;;;;9.17;5.40;;;20.60;46.10;;;;;;5046291;28;20338;-49
2023/05/25 07:48:25;;;;;;;10.80;6.13;;;20.50;45.20;;;;;;5042598;28;20232;-50
2023/05/25 07:50:51;;;;;;;9.73;6.07;;;20.60;45.60;;;;;;5047135;28;20474;-48
2023/05/25 07:53:17;;;;;;;8.80;6.03;;;20.60;45.10;;;;;;5042360;28;20197;-47
2023/05/25 07:55:42;;;;;;;9.10;5.90;;;20.60;45.90;;;;;;5045887;28;20207;-48
2023/05/25 07:58:08;;;;;;;7.57;5.53;;;20.60;46.40;;;;;;5051566;28;20196;-50
2023/05/25 08:00:33;;;;;;;10.87;5.77;;;20.80;46.40;;;;;;5048129;28;20215;-53
2023/05/25 08:03:01;;;;;;;10.40;6.00;;;21.00;46.00;;;;;;5051474;28;20220;-47
2023/05/25 08:05:26;;;;;;;10.53;6.03;;;21.10;46.70;;;;;;5050781;28;20289;-51
2023/05/25 08:07:52;;;;;;;10.20;5.60;;;21.10;45.10;;;;;;5049992;28;20435;-49
2023/05/25 08:10:18;;;;;;;7.73;5.27;;;20.90;45.00;;;;;;5048120;28;20188;-48
2023/05/25 08:12:44;;;;;;;8.43;6.07;;;21.10;45.90;;;;;;5031321;28;20749;-48
2023/05/25 08:15:09;;;;;;;10.03;5.60;;;21.20;46.40;;;;;;5043155;28;20192;-51
2023/05/25 08:17:35;;;;;;;11.40;5.30;;;21.50;46.40;;;;;;5045630;28;20207;-51
2023/05/25 08:20:01;;;;;;;8.70;7.13;;;21.80;46.50;;;;;;5046986;28;20644;-49
2023/05/25 08:22:27;;;;;;;8.23;5.60;;;21.90;44.00;;;;;;5042789;28;20206;-50
2023/05/25 08:24:52;;;;;;;9.27;5.27;;;22.10;44.30;;;;;;5041921;28;20787;-49
2023/05/25 08:27:18;;;;;;;9.77;5.60;;;22.30;44.00;;;;;;5036483;28;20219;-52
2023/05/25 08:29:43;;;;;;;12.03;6.60;;;22.40;43.50;;;;;;5044006;28;20291;-50
2023/05/25 08:32:09;;;;;;;8.97;5.50;;;22.60;43.10;;;;;;5042881;28;20730;-49
2023/05/25 08:34:34;;;;;;;8.33;5.57;;;22.90;43.50;;;;;;5045545;28;20200;-48
2023/05/25 08:37:00;;;;;;;8.60;5.67;;;23.20;43.10;;;;;;5040075;28;20267;-50
2023/05/25 08:39:26;;;;;;;21.07;8.00;;;23.50;43.60;;;;;;5041367;28;20324;-49
2023/05/25 08:41:52;;;;;;;13.07;6.90;;;23.60;43.60;;;;;;5036991;28;20192;-51
2023/05/25 08:44:18;;;;;;;11.37;6.80;;;23.70;43.40;;;;;;5042224;28;20184;-48
2023/05/25 08:46:47;;;;;;;7.13;5.97;;;23.90;43.30;;;;;;5039883;28;20447;-52
2023/05/25 08:49:14;;;;;;;14.70;6.90;;;24.00;43.10;;;;;;5046887;28;20435;-49
2023/05/25 08:51:51;;;;;;;10.17;6.83;;;23.90;42.80;;;;;;5043334;28;20547;-51
2023/05/25 08:54:22;;;;;;;10.97;6.67;;;23.90;42.70;;;;;;5042461;28;20453;-48
2023/05/25 08:56:53;;;;;;;14.70;8.20;;;23.70;42.90;;;;;;5044723;28;20563;-51
2023/05/25 08:59:33;;;;;;;9.03;6.27;;;23.60;43.00;;;;;;5038312;28;20871;-51
2023/05/25 09:02:38;;;;;;;11.63;6.83;;;23.80;42.60;;;;;;5042004;28;20777;-48
2023/05/25 09:05:04;;;;;;;6.93;6.00;;;23.90;42.10;;;;;;5041094;28;20536;-52
2023/05/25 09:07:30;;;;;;;10.03;6.10;;;24.10;42.50;;;;;;5041813;28;20455;-49
2023/05/25 09:09:57;;;;;;;12.90;7.00;;;24.20;42.20;;;;;;5048511;28;20451;-48
2023/05/25 09:12:23;;;;;;;10.50;7.10;;;24.30;42.20;;;;;;5020688;28;20482;-48
2023/05/25 09:14:49;;;;;;;6.87;6.00;;;24.30;41.70;;;;;;5038468;28;20584;-49
2023/05/25 09:17:16;;;;;;;13.93;6.23;;;24.30;42.00;;;;;;5045409;28;20648;-49
2023/05/25 09:19:41;;;;;;;10.57;5.60;;;24.10;42.00;;;;;;5043804;28;20450;-49
2023/05/25 09:22:09;;;;;;;9.43;6.00;;;24.20;42.20;;;;;;5044200;28;20440;-49
2023/05/25 09:24:35;;;;;;;10.90;6.23;;;24.30;42.20;;;;;;5046747;28;20957;-49
2023/05/25 09:27:02;;;;;;;6.10;5.03;;;24.60;41.90;;;;;;5042257;28;20444;-50
2023/05/25 09:29:28;;;;;;;10.20;6.17;;;24.60;41.30;;;;;;5045317;28;20845;-49
2023/05/25 09:31:54;;;;;;;9.00;5.50;;;24.60;41.10;;;;;;5031115;28;20495;-50
2023/05/25 09:34:20;;;;;;;7.10;5.57;;;24.80;41.50;;;;;;5046270;28;20656;-48
2023/05/25 09:36:46;;;;;;;8.13;5.70;;;24.90;41.10;;;;;;5040861;28;20446;-49
2023/05/25 09:39:14;;;;;;;8.53;5.53;;;25.00;41.20;;;;;;5024602;28;20193;-52
2023/05/25 09:41:40;;;;;;;10.20;5.57;;;25.00;41.00;;;;;;5040726;28;20196;-51
2023/05/25 09:44:06;;;;;;;9.73;5.83;;;25.10;40.80;;;;;;5038565;28;20493;-50
2023/05/25 09:46:35;;;;;;;11.33;5.90;;;25.20;39.80;;;;;;5046205;28;20201;-50
2023/05/25 09:49:07;;;;;;;12.97;5.13;;;25.40;40.20;;;;;;5047785;28;20446;-51
2023/05/25 09:51:33;;;;;;;8.90;5.60;;;25.30;39.50;;;;;;5049038;28;20470;-50
2023/05/25 09:54:03;;;;;;;7.50;5.47;;;25.40;39.00;;;;;;5033001;28;20525;-53
2023/05/25 09:56:32;;;;;;;10.80;5.50;;;25.30;39.50;;;;;;5038555;28;20509;-51
2023/05/25 09:58:58;;;;;;;9.33;5.57;;;25.20;39.80;;;;;;5047621;28;20475;-50
2023/05/25 10:01:24;;;;;;;8.47;6.07;;;25.20;39.70;;;;;;5043932;28;20439;-50
2023/05/25 10:03:50;;;;;;;7.93;5.80;;;25.20;39.50;;;;;;5041912;28;20568;-50
2023/05/25 10:06:19;;;;;;;10.90;6.33;;;25.40;39.80;;;;;;5038764;28;20508;-50
2023/05/25 10:08:47;;;;;;;10.50;6.10;;;25.70;40.50;;;;;;5051739;28;20207;-51
2023/05/25 10:11:16;;;;;;;7.50;5.40;;;25.80;40.10;;;;;;5041609;28;21427;-50
2023/05/25 10:13:45;;;;;;;11.80;5.00;;;25.70;41.10;;;;;;5046122;28;20504;-50
2023/05/25 10:16:17;;;;;;;10.03;5.03;;;25.70;39.90;;;;;;5050898;28;20450;-50
2023/05/25 10:18:50;;;;;;;8.67;6.60;;;26.00;40.40;;;;;;5053276;28;20450;-51
2023/05/25 10:21:18;;;;;;;8.40;6.00;;;26.20;39.20;;;;;;5032591;28;20449;-54
2023/05/25 10:23:49;;;;;;;9.13;5.50;;;26.20;37.70;;;;;;5043475;28;20446;-52
2023/05/25 10:26:24;;;;;;;9.53;5.10;;;25.90;39.40;;;;;;5029401;28;20529;-52
2023/05/25 10:28:53;;;;;;;10.20;6.33;;;26.00;39.80;;;;;;5040016;28;20440;-54
2023/05/25 10:31:20;;;;;;;9.03;5.77;;;26.20;40.20;;;;;;5041549;28;20569;-53
2023/05/25 10:33:46;;;;;;;6.77;5.23;;;26.70;39.30;;;;;;5045934;28;20443;-50
2023/05/25 10:36:12;;;;;;;6.63;4.70;;;26.80;39.10;;;;;;5049248;28;20500;-50
2023/05/25 10:38:43;;;;;;;6.37;5.53;;;26.80;40.00;;;;;;5045107;28;20220;-50
2023/05/25 10:41:10;;;;;;;7.40;5.43;;;27.00;38.10;;;;;;5037103;28;20934;-50
2023/05/25 10:43:37;;;;;;;6.60;5.27;;;27.10;38.10;;;;;;5039571;28;20966;-51
2023/05/25 10:46:07;;;;;;;9.53;6.30;;;26.80;37.80;;;;;;5045871;28;20443;-51
2023/05/25 10:48:37;;;;;;;8.73;5.47;;;26.80;38.50;;;;;;5039282;28;20880;-50
2023/05/25 10:51:03;;;;;;;10.60;5.87;;;26.90;38.60;;;;;;5036522;28;20486;-54
2023/05/25 10:53:28;;;;;;;6.37;4.43;;;26.90;38.80;;;;;;5049386;28;20989;-52
2023/05/25 10:55:57;;;;;;;9.60;5.40;;;27.10;39.00;;;;;;5040491;28;20913;-54
2023/05/25 10:58:26;;;;;;;9.80;6.20;;;27.20;37.70;;;;;;5052750;28;20239;-52
2023/05/25 11:01:07;;;;;;;8.80;5.00;;;27.30;38.40;;;;;;5040348;28;21161;-51
2023/05/25 11:03:57;;;;;;;7.20;5.07;;;27.40;38.90;;;;;;5052981;28;20438;-52
2023/05/25 11:06:46;;;;;;;7.10;5.10;;;27.50;37.80;;;;;;5050094;28;20540;-50
2023/05/25 11:09:24;;;;;;;5.30;4.80;;;27.50;38.20;;;;;;5052568;28;20442;-53
2023/05/25 11:11:51;;;;;;;4.80;4.33;;;27.40;37.50;;;;;;5047913;28;20502;-52
2023/05/25 11:14:20;;;;;;;7.67;5.13;;;27.60;38.60;;;;;;5051092;28;20439;-50
2023/05/25 11:17:12;;;;;;;5.33;4.70;;;27.50;38.00;;;;;;5052992;28;20493;-49
2023/05/25 11:19:47;;;;;;;6.13;5.47;;;27.40;36.90;;;;;;5049681;28;20455;-51
2023/05/25 11:22:29;;;;;;;5.40;4.60;;;27.20;36.70;;;;;;5047904;28;20451;-51
2023/05/25 11:24:57;;;;;;;9.00;5.80;;;27.00;37.90;;;;;;5045114;28;20545;-51
2023/05/25 11:27:23;;;;;;;9.10;5.20;;;27.00;37.50;;;;;;5047900;28;21081;-53
2023/05/25 11:29:51;;;;;;;5.90;5.30;;;27.20;37.50;;;;;;5051289;28;21011;-50
2023/05/25 11:32:16;;;;;;;7.40;5.10;;;27.50;36.80;;;;;;5051554;28;20546;-50
2023/05/25 11:34:45;;;;;;;7.13;5.33;;;27.50;36.70;;;;;;5050320;28;20439;-51
2023/05/25 11:37:15;;;;;;;7.83;4.57;;;27.50;37.10;;;;;;5050879;28;20525;-53
2023/05/25 11:39:42;;;;;;;5.50;4.83;;;27.80;37.00;;;;;;5044241;28;20781;-53
2023/05/25 11:42:10;;;;;;;5.53;4.73;;;27.90;36.90;;;;;;5039517;28;20458;-53
2023/05/25 11:44:37;;;;;;;6.97;4.93;;;27.80;37.50;;;;;;5042239;28;20451;-50
2023/05/25 11:47:08;;;;;;;11.83;5.70;;;27.80;37.20;;;;;;5039843;28;20447;-54
2023/05/25 11:49:38;;;;;;;12.47;4.90;;;27.60;38.20;;;;;;5046881;28;20810;-54
2023/05/25 11:52:07;;;;;;;7.70;5.10;;;27.40;36.90;;;;;;5036446;28;20521;-52
2023/05/25 11:54:34;;;;;;;11.17;5.43;;;27.40;36.30;;;;;;5041590;28;20443;-52
2023/05/25 11:57:01;;;;;;;6.47;4.77;;;27.40;36.70;;;;;;5045440;28;20482;-52
2023/05/25 11:59:28;;;;;;;8.80;5.13;;;27.30;37.10;;;;;;5043669;28;20443;-50
2023/05/25 12:02:01;;;;;;;7.30;5.80;;;27.50;36.90;;;;;;5032507;28;20444;-51
2023/05/25 12:04:28;;;;;;;6.40;5.50;;;27.70;37.10;;;;;;5046974;28;20446;-52
2023/05/25 12:07:01;;;;;;;6.47;5.30;;;27.70;36.60;;;;;;5040409;28;20467;-49
2023/05/25 12:09:27;;;;;;;7.57;4.77;;;27.70;38.40;;;;;;5040644;28;20458;-50
2023/05/25 12:11:53;;;;;;;9.73;6.03;;;27.70;38.70;;;;;;5043214;28;20479;-58
2023/05/25 12:14:19;;;;;;;9.87;5.70;;;27.70;37.30;;;;;;5048324;28;20207;-47
2023/05/25 12:16:45;;;;;;;9.40;5.70;;;27.70;37.40;;;;;;5039646;28;20440;-47
2023/05/25 12:19:11;;;;;;;10.60;5.63;;;27.90;37.70;;;;;;5044887;28;20198;-52
2023/05/25 12:21:39;;;;;;;9.30;5.80;;;28.10;37.90;;;;;;5037973;28;20533;-48
2023/05/25 12:24:06;;;;;;;8.30;5.20;;;28.10;36.50;;;;;;5040425;28;20454;-47
2023/05/25 12:26:32;;;;;;;9.00;5.80;;;28.10;37.90;;;;;;5046500;28;20500;-49
2023/05/25 12:29:02;;;;;;;6.10;4.87;;;28.20;37.60;;;;;;5047830;28;20524;-50
2023/05/25 12:31:37;;;;;;;9.37;5.23;;;28.20;37.30;;;;;;5043278;28;20224;-47
2023/05/25 12:34:06;;;;;;;8.00;5.53;;;28.20;37.30;;;;;;5049159;28;20476;-48
2023/05/25 12:36:52;;;;;;;9.63;5.40;;;28.30;36.50;;;;;;5032913;28;20455;-47
2023/05/25 12:39:30;;;;;;;8.50;5.37;;;28.10;37.40;;;;;;5031479;28;20425;-47
2023/05/25 12:41:57;;;;;;;6.90;6.10;;;28.20;36.70;;;;;;5045090;28;20499;-49
2023/05/25 12:44:24;;;;;;;7.83;5.90;;;28.30;37.00;;;;;;5046656;28;21102;-47
2023/05/25 12:46:51;;;;;;;6.43;5.03;;;28.30;37.40;;;;;;5043281;28;20811;-51